Time;durP1;ratioP1;P1;durP2;ratioP2;P2;SDS_P1;SDS_P2;PMS_P1;PMS_P2;Temp;Humidity;BMP_temperature;BMP_pressure;BME280_temperature;BME280_humidity;BME280_pressure;Samples;Min_cycle;Max_cycle;Signal;HPM_P1;HPM_P2
2022/03/31 00:01:03;;;;;;;15.57;10.40;;;7.00;99.90;;;;;;5062668;28;20897;-83
2022/03/31 00:03:29;;;;;;;18.30;10.87;;;6.90;99.90;;;;;;5063723;28;20448;-84
2022/03/31 00:05:56;;;;;;;12.87;8.60;;;6.90;99.90;;;;;;5062496;28;20452;-83
2022/03/31 00:08:23;;;;;;;18.90;9.87;;;6.80;99.90;;;;;;5063573;28;20486;-84
2022/03/31 00:10:52;;;;;;;13.50;8.87;;;6.90;99.90;;;;;;5066585;28;20491;-85
2022/03/31 00:13:20;;;;;;;15.40;11.23;;;6.90;99.90;;;;;;5068972;28;20498;-84
2022/03/31 00:15:48;;;;;;;12.23;9.13;;;6.90;99.90;;;;;;5070676;28;20448;-85
2022/03/31 00:18:17;;;;;;;11.60;8.20;;;6.90;99.90;;;;;;5069808;28;20482;-85
2022/03/31 00:20:44;;;;;;;15.60;10.10;;;7.00;99.90;;;;;;5068645;28;20456;-85
2022/03/31 00:23:11;;;;;;;14.33;9.40;;;7.10;99.90;;;;;;5066447;28;20550;-84
2022/03/31 00:25:38;;;;;;;12.87;9.67;;;7.10;99.90;;;;;;5055688;28;20482;-85
2022/03/31 00:28:05;;;;;;;14.73;8.87;;;7.10;99.90;;;;;;5066037;28;20471;-84
2022/03/31 00:30:33;;;;;;;13.80;9.60;;;7.10;99.90;;;;;;5065262;28;20483;-84
2022/03/31 00:33:00;;;;;;;14.37;9.07;;;7.00;99.90;;;;;;5065562;28;20490;-83
2022/03/31 00:35:29;;;;;;;16.53;10.07;;;7.00;99.90;;;;;;5065206;28;20512;-84
2022/03/31 00:37:56;;;;;;;12.77;9.30;;;7.00;99.90;;;;;;5066219;28;20466;-84
2022/03/31 00:40:23;;;;;;;13.60;9.03;;;7.10;99.90;;;;;;5065065;28;20453;-84
2022/03/31 00:42:53;;;;;;;18.73;10.20;;;7.10;99.90;;;;;;5063868;28;20834;-84
2022/03/31 00:45:23;;;;;;;16.50;8.90;;;7.00;99.90;;;;;;5063878;28;20463;-84
2022/03/31 00:47:51;;;;;;;14.50;11.00;;;6.90;99.90;;;;;;5064884;28;20455;-81
2022/03/31 00:50:18;;;;;;;12.93;9.80;;;6.80;99.90;;;;;;5066223;28;20526;-84
2022/03/31 00:52:46;;;;;;;15.77;9.83;;;6.80;99.90;;;;;;5046698;28;20476;-84
2022/03/31 00:55:15;;;;;;;17.57;10.07;;;6.80;99.90;;;;;;5062721;28;20508;-84
2022/03/31 00:57:43;;;;;;;16.13;10.80;;;6.80;99.90;;;;;;5074027;28;20476;-84
2022/03/31 01:00:14;;;;;;;14.80;10.90;;;6.80;99.90;;;;;;5069231;28;20459;-83
2022/03/31 01:02:43;;;;;;;14.17;10.90;;;6.70;99.90;;;;;;5064941;28;20998;-84
2022/03/31 01:05:11;;;;;;;17.13;11.60;;;6.70;99.90;;;;;;5065653;28;20531;-84
2022/03/31 01:07:38;;;;;;;17.80;10.57;;;6.80;99.90;;;;;;5064699;28;20456;-83
2022/03/31 01:10:08;;;;;;;17.67;11.67;;;6.90;99.90;;;;;;5064537;28;20567;-83
2022/03/31 01:12:35;;;;;;;17.93;10.90;;;6.80;99.90;;;;;;5065212;28;20965;-84
2022/03/31 01:15:10;;;;;;;16.87;11.10;;;6.80;99.90;;;;;;5064104;28;20444;-84
2022/03/31 01:17:39;;;;;;;15.10;11.37;;;6.80;99.90;;;;;;5065539;28;20466;-85
2022/03/31 01:20:08;;;;;;;15.03;11.17;;;6.80;99.90;;;;;;5065287;28;20481;-85
2022/03/31 01:22:35;;;;;;;16.67;10.97;;;6.80;99.90;;;;;;5064907;28;20452;-84
2022/03/31 01:25:06;;;;;;;17.27;11.70;;;6.90;99.90;;;;;;5064082;28;20513;-84
2022/03/31 01:27:35;;;;;;;23.00;10.63;;;6.90;99.90;;;;;;5062392;28;20991;-84
2022/03/31 01:30:02;;;;;;;12.93;9.63;;;6.90;99.90;;;;;;5063338;28;21004;-85
2022/03/31 01:32:29;;;;;;;18.70;12.00;;;6.80;99.90;;;;;;5062473;28;20456;-84
2022/03/31 01:34:56;;;;;;;15.87;11.03;;;6.90;99.90;;;;;;5061273;28;21011;-83
2022/03/31 01:37:23;;;;;;;14.87;10.50;;;6.90;99.90;;;;;;5061792;28;20590;-83
2022/03/31 01:39:50;;;;;;;17.00;11.10;;;6.90;99.90;;;;;;5061568;28;20472;-85
2022/03/31 01:42:18;;;;;;;18.13;11.37;;;6.70;99.90;;;;;;5061017;28;20452;-84
2022/03/31 01:44:45;;;;;;;17.67;11.93;;;6.70;99.90;;;;;;5060129;28;21011;-83
2022/03/31 01:47:12;;;;;;;17.17;10.53;;;6.70;99.90;;;;;;5061112;28;20592;-81
2022/03/31 01:49:39;;;;;;;16.03;11.27;;;6.70;99.90;;;;;;5061631;28;21041;-84
2022/03/31 01:52:07;;;;;;;17.70;12.13;;;6.70;99.90;;;;;;5061416;28;20463;-83
2022/03/31 01:54:34;;;;;;;18.30;12.47;;;6.70;99.90;;;;;;5070714;28;20479;-85
2022/03/31 01:57:01;;;;;;;15.53;11.90;;;6.80;99.90;;;;;;5064294;28;20448;-84
2022/03/31 01:59:34;;;;;;;16.90;11.33;;;6.80;99.90;;;;;;5065419;28;20473;-85
2022/03/31 02:02:01;;;;;;;19.40;13.60;;;6.70;99.90;;;;;;5066086;28;20616;-84
2022/03/31 02:04:28;;;;;;;15.80;12.10;;;6.70;99.90;;;;;;5066187;28;20458;-85
2022/03/31 02:06:55;;;;;;;15.77;11.57;;;6.70;99.90;;;;;;5066743;28;20462;-85
2022/03/31 02:09:22;;;;;;;23.10;12.50;;;6.80;99.90;;;;;;5068471;28;20472;-85
2022/03/31 02:11:49;;;;;;;15.00;11.40;;;6.80;99.90;;;;;;5067450;28;20519;-84
2022/03/31 02:14:17;;;;;;;16.47;12.70;;;6.80;99.90;;;;;;5064738;28;20933;-84
2022/03/31 02:16:45;;;;;;;18.30;13.90;;;6.80;99.90;;;;;;5064695;28;20489;-85
2022/03/31 02:19:12;;;;;;;18.40;11.70;;;6.60;99.90;;;;;;5065692;28;20487;-83
2022/03/31 02:21:39;;;;;;;20.40;13.43;;;6.60;99.90;;;;;;5065959;28;20460;-85
2022/03/31 02:24:08;;;;;;;16.70;13.57;;;6.60;99.90;;;;;;5063855;28;20474;-84
2022/03/31 02:26:35;;;;;;;18.43;12.53;;;6.60;99.90;;;;;;5061907;28;20444;-84
2022/03/31 02:29:03;;;;;;;17.70;12.93;;;6.60;99.90;;;;;;5061897;28;20482;-82
2022/03/31 02:31:30;;;;;;;20.93;15.17;;;6.60;99.90;;;;;;5062758;28;20515;-84
2022/03/31 02:33:58;;;;;;;25.70;15.20;;;6.50;99.90;;;;;;5060623;28;20484;-83
2022/03/31 02:36:27;;;;;;;16.60;12.80;;;6.50;99.90;;;;;;5061636;28;20538;-82
2022/03/31 02:38:54;;;;;;;19.40;14.00;;;6.40;99.90;;;;;;5062617;28;20475;-83
2022/03/31 02:41:21;;;;;;;21.67;13.60;;;6.40;99.90;;;;;;5061019;28;20461;-86
2022/03/31 02:43:48;;;;;;;18.53;12.33;;;6.40;99.90;;;;;;5060044;28;20452;-81
2022/03/31 02:46:14;;;;;;;21.73;12.60;;;6.30;99.90;;;;;;5059403;28;20455;-81
2022/03/31 02:48:41;;;;;;;21.57;13.97;;;6.30;99.90;;;;;;5059860;28;20476;-81
2022/03/31 02:51:09;;;;;;;20.03;14.90;;;6.30;99.90;;;;;;5058281;28;20460;-84
2022/03/31 02:56:21;;;;;;;16.57;11.80;;;6.20;99.90;;;;;;5059530;28;20423;-82
2022/03/31 02:58:48;;;;;;;16.63;12.37;;;6.20;99.90;;;;;;5058872;28;20470;-83
2022/03/31 03:01:14;;;;;;;21.13;12.27;;;6.30;99.90;;;;;;5059352;28;20989;-84
2022/03/31 03:03:41;;;;;;;18.97;12.43;;;6.30;99.90;;;;;;5057801;28;20958;-83
2022/03/31 03:06:09;;;;;;;16.60;11.97;;;6.30;99.90;;;;;;5059164;28;20809;-83
2022/03/31 03:08:36;;;;;;;18.27;13.33;;;6.40;99.90;;;;;;5058884;28;20491;-81
2022/03/31 03:11:03;;;;;;;17.27;11.97;;;6.40;99.90;;;;;;5058593;28;20455;-83
2022/03/31 03:13:30;;;;;;;22.07;11.93;;;6.40;99.90;;;;;;5057864;28;20501;-84
2022/03/31 03:16:11;;;;;;;17.47;11.80;;;6.30;99.90;;;;;;5057666;28;20464;-83
2022/03/31 03:18:38;;;;;;;19.67;12.53;;;6.30;99.90;;;;;;5059216;28;20459;-83
2022/03/31 03:21:29;;;;;;;17.43;12.47;;;6.30;99.90;;;;;;5053220;28;20452;-84
2022/03/31 03:27:02;;;;;;;13.40;11.90;;;6.20;99.90;;;;;;5052617;28;20448;-84
2022/03/31 03:29:52;;;;;;;22.23;13.80;;;6.10;99.90;;;;;;5059657;28;20472;-84
2022/03/31 03:32:22;;;;;;;18.83;13.10;;;6.10;99.90;;;;;;5063125;28;20411;-84
2022/03/31 03:35:22;;;;;;;17.17;13.40;;;6.10;99.90;;;;;;5061197;28;20483;-83
2022/03/31 03:37:59;;;;;;;17.70;13.20;;;6.20;99.90;;;;;;5060795;28;20460;-85
2022/03/31 03:40:31;;;;;;;23.30;14.07;;;6.20;99.90;;;;;;5055960;28;20521;-84
2022/03/31 03:43:02;;;;;;;21.37;14.80;;;6.10;99.90;;;;;;5056153;28;20881;-83
2022/03/31 03:45:30;;;;;;;16.97;13.30;;;6.10;99.90;;;;;;5056456;28;20460;-83
2022/03/31 03:48:20;;;;;;;19.80;12.97;;;6.10;99.90;;;;;;5057616;28;20456;-83
2022/03/31 03:53:55;;;;;;;19.60;14.80;;;6.10;99.90;;;;;;5055975;28;20482;-84
2022/03/31 03:56:40;;;;;;;18.23;14.20;;;6.10;99.90;;;;;;5058490;28;20546;-83
2022/03/31 03:59:08;;;;;;;21.53;16.23;;;6.10;99.90;;;;;;5072514;28;20470;-84
2022/03/31 04:01:35;;;;;;;23.37;15.30;;;6.10;99.90;;;;;;5071147;28;20511;-83
2022/03/31 04:04:02;;;;;;;18.70;13.30;;;6.10;99.90;;;;;;5071447;28;20489;-84
2022/03/31 04:06:29;;;;;;;21.00;15.13;;;6.10;99.90;;;;;;5074729;28;20466;-83
2022/03/31 04:08:55;;;;;;;19.83;14.60;;;6.10;99.90;;;;;;5074107;28;20505;-84
2022/03/31 04:11:22;;;;;;;21.10;13.67;;;6.10;99.90;;;;;;5075862;28;20475;-84
2022/03/31 04:13:50;;;;;;;17.83;13.70;;;6.10;99.90;;;;;;5078065;28;20491;-83
2022/03/31 04:16:17;;;;;;;18.60;13.90;;;6.20;99.90;;;;;;5075956;28;20458;-83
2022/03/31 04:18:44;;;;;;;19.07;13.27;;;6.20;99.90;;;;;;5072886;28;20472;-85
2022/03/31 04:21:11;;;;;;;19.90;14.67;;;6.30;99.90;;;;;;5072892;28;20447;-84
2022/03/31 04:23:38;;;;;;;20.37;13.47;;;6.40;99.90;;;;;;5066680;28;20474;-84
2022/03/31 04:26:05;;;;;;;19.07;12.90;;;6.40;99.90;;;;;;5064642;28;20538;-84
2022/03/31 04:28:32;;;;;;;16.50;12.50;;;6.40;99.90;;;;;;5063982;28;20487;-84
2022/03/31 04:31:00;;;;;;;21.77;13.83;;;6.50;99.90;;;;;;5063636;28;20527;-83
2022/03/31 04:33:28;;;;;;;17.90;13.03;;;6.50;99.90;;;;;;5063413;28;20452;-83
2022/03/31 04:35:55;;;;;;;18.87;14.57;;;6.50;99.90;;;;;;5061878;28;21177;-84
2022/03/31 04:38:22;;;;;;;22.00;14.13;;;6.40;99.90;;;;;;5063015;28;20567;-83
2022/03/31 04:40:49;;;;;;;19.77;14.37;;;6.50;99.90;;;;;;5063018;28;20466;-84
2022/03/31 04:43:16;;;;;;;40.30;35.80;;;6.40;99.90;;;;;;5065831;28;20456;-78
2022/03/31 04:45:43;;;;;;;19.40;13.70;;;6.50;99.90;;;;;;5068183;28;20440;-79
2022/03/31 04:48:11;;;;;;;20.33;12.80;;;;;;;;;;5067611;28;20539;-79
2022/03/31 04:50:38;;;;;;;18.33;12.33;;;6.60;99.90;;;;;;5067273;28;20809;-78
2022/03/31 04:53:06;;;;;;;22.30;12.33;;;6.60;99.90;;;;;;5067099;28;20456;-79
2022/03/31 04:55:33;;;;;;;18.40;11.23;;;;;;;;;;5069216;28;20479;-79
2022/03/31 04:58:00;;;;;;;27.90;22.33;;;6.60;99.90;;;;;;5068102;28;20486;-80
2022/03/31 05:00:27;;;;;;;55.40;47.77;;;6.20;99.90;;;;;;5067244;28;20451;-79
2022/03/31 05:02:54;;;;;;;20.67;11.33;;;6.50;99.90;;;;;;5067817;28;20444;-79
2022/03/31 05:05:23;;;;;;;16.87;11.80;;;6.50;99.90;;;;;;5064372;28;20455;-79
2022/03/31 05:07:49;;;;;;;35.23;22.67;;;6.30;99.90;;;;;;5059328;28;20453;-82
2022/03/31 05:10:16;;;;;;;18.80;10.07;;;6.30;99.90;;;;;;5058119;28;20455;-81
2022/03/31 05:12:43;;;;;;;22.03;10.40;;;6.10;99.90;;;;;;5058264;28;20463;-82
2022/03/31 05:15:11;;;;;;;14.27;9.57;;;6.30;99.90;;;;;;5055639;28;20492;-81
2022/03/31 05:17:38;;;;;;;20.03;12.17;;;6.20;99.90;;;;;;5057645;28;20478;-83
2022/03/31 05:20:07;;;;;;;17.50;11.00;;;6.20;99.90;;;;;;5057884;28;20503;-81
2022/03/31 05:22:36;;;;;;;18.43;11.83;;;6.20;99.90;;;;;;5057586;28;20447;-81
2022/03/31 05:25:04;;;;;;;21.33;13.33;;;6.20;99.90;;;;;;5058417;28;20547;-81
2022/03/31 05:27:31;;;;;;;19.30;11.77;;;6.20;99.90;;;;;;5065602;28;20447;-82
2022/03/31 05:29:58;;;;;;;18.40;11.33;;;6.20;99.90;;;;;;5069982;28;20899;-82
2022/03/31 05:32:25;;;;;;;19.40;13.00;;;6.20;99.90;;;;;;5067337;28;20481;-82
2022/03/31 05:34:52;;;;;;;18.20;12.43;;;6.20;99.90;;;;;;5061315;28;20486;-82
2022/03/31 05:37:19;;;;;;;20.03;12.67;;;6.20;99.90;;;;;;5068283;28;20954;-83
2022/03/31 05:39:47;;;;;;;16.93;12.17;;;6.30;99.90;;;;;;5091894;22;20865;-81
2022/03/31 05:42:14;;;;;;;20.23;12.67;;;6.20;99.90;;;;;;5073290;28;20457;-81
2022/03/31 05:44:41;;;;;;;21.70;12.13;;;6.20;99.90;;;;;;5068677;28;21006;-81
2022/03/31 05:47:08;;;;;;;18.90;13.33;;;6.20;99.90;;;;;;5078386;28;20827;-81
2022/03/31 05:49:34;;;;;;;22.63;14.67;;;6.20;99.90;;;;;;5078558;28;20473;-83
2022/03/31 05:52:01;;;;;;;23.37;13.80;;;6.20;99.90;;;;;;5082026;28;20449;-84
2022/03/31 05:54:30;;;;;;;24.73;14.00;;;6.30;99.90;;;;;;5074857;28;20593;-83
2022/03/31 05:56:59;;;;;;;21.23;13.93;;;6.20;99.90;;;;;;5041975;28;20903;-83
2022/03/31 05:59:25;;;;;;;20.30;12.97;;;6.30;99.90;;;;;;5055319;28;20472;-82
2022/03/31 06:01:52;;;;;;;19.60;14.30;;;6.30;99.90;;;;;;5074617;28;20449;-83
2022/03/31 06:04:21;;;;;;;20.00;13.47;;;6.40;99.90;;;;;;5049880;28;20484;-83
2022/03/31 06:06:48;;;;;;;23.90;13.23;;;6.40;99.90;;;;;;5054561;28;20835;-82
2022/03/31 06:09:15;;;;;;;21.63;14.23;;;6.50;99.90;;;;;;5057783;28;20459;-82
2022/03/31 06:11:42;;;;;;;23.03;13.67;;;6.50;99.90;;;;;;5060995;28;20888;-82
2022/03/31 06:14:10;;;;;;;21.50;12.90;;;6.50;99.90;;;;;;5052548;28;20487;-82
2022/03/31 06:16:38;;;;;;;18.93;13.13;;;6.50;99.90;;;;;;5054246;28;20450;-81
2022/03/31 06:19:09;;;;;;;26.77;14.77;;;6.60;99.90;;;;;;5051648;28;20483;-82
2022/03/31 06:21:36;;;;;;;20.20;13.07;;;6.70;99.90;;;;;;5063740;28;21055;-82
2022/03/31 06:24:03;;;;;;;21.30;13.23;;;6.70;99.90;;;;;;5062845;28;20506;-81
2022/03/31 06:26:34;;;;;;;20.10;12.27;;;6.70;99.90;;;;;;5046861;28;20447;-81
2022/03/31 06:29:01;;;;;;;17.77;12.23;;;6.80;99.90;;;;;;5050738;28;20937;-82
2022/03/31 06:31:30;;;;;;;16.97;11.90;;;6.90;99.90;;;;;;5058616;28;20471;-81
2022/03/31 06:33:57;;;;;;;24.03;12.50;;;7.00;99.90;;;;;;5052120;28;20460;-81
2022/03/31 06:36:24;;;;;;;22.50;13.40;;;6.90;99.90;;;;;;5060310;28;20523;-82
2022/03/31 06:38:51;;;;;;;19.27;12.67;;;7.00;99.90;;;;;;5046851;28;20517;-82
2022/03/31 06:41:21;;;;;;;18.60;12.70;;;7.00;99.90;;;;;;5052794;28;20495;-82
2022/03/31 06:43:49;;;;;;;17.13;13.23;;;7.10;99.90;;;;;;5059782;28;20451;-81
2022/03/31 06:46:17;;;;;;;18.13;12.60;;;7.20;99.90;;;;;;5050314;28;20454;-82
2022/03/31 06:48:47;;;;;;;19.93;12.33;;;7.10;99.90;;;;;;5048545;28;20497;-82
2022/03/31 06:51:16;;;;;;;20.50;12.40;;;7.10;99.90;;;;;;5049671;28;20472;-82
2022/03/31 06:53:44;;;;;;;19.07;13.57;;;7.10;99.90;;;;;;5053795;28;20484;-82
2022/03/31 06:56:13;;;;;;;24.90;12.53;;;7.10;99.90;;;;;;5058112;28;20476;-82
2022/03/31 06:58:41;;;;;;;19.53;13.60;;;7.20;99.90;;;;;;5060712;28;20465;-79
2022/03/31 07:01:07;;;;;;;18.57;13.47;;;7.30;99.90;;;;;;5073569;28;20567;-81
2022/03/31 07:03:36;;;;;;;21.83;14.40;;;7.30;99.90;;;;;;5062808;28;20457;-82
2022/03/31 07:06:04;;;;;;;20.30;12.83;;;7.30;99.90;;;;;;5064113;28;20500;-82
2022/03/31 07:08:32;;;;;;;26.03;14.90;;;7.40;99.90;;;;;;5053957;28;20470;-83
2022/03/31 07:10:59;;;;;;;21.00;13.50;;;7.40;99.90;;;;;;5067796;28;21072;-82
2022/03/31 07:13:26;;;;;;;19.93;12.70;;;7.40;99.90;;;;;;5067734;28;20467;-83
2022/03/31 07:15:53;;;;;;;20.37;14.33;;;7.50;99.90;;;;;;5060310;28;20522;-83
2022/03/31 07:18:20;;;;;;;18.30;12.83;;;7.40;99.90;;;;;;5062585;28;20452;-83
2022/03/31 07:20:47;;;;;;;20.07;12.30;;;7.30;99.90;;;;;;5061493;28;20537;-83
2022/03/31 07:23:16;;;;;;;20.10;14.43;;;7.30;99.90;;;;;;5062246;28;20447;-81
2022/03/31 07:25:43;;;;;;;16.17;12.37;;;7.20;99.90;;;;;;5063478;28;20447;-82
2022/03/31 07:28:10;;;;;;;23.00;14.33;;;7.20;99.90;;;;;;5060771;28;20468;-82
2022/03/31 07:30:37;;;;;;;20.83;14.17;;;7.10;99.90;;;;;;5063194;28;20558;-82
2022/03/31 07:33:05;;;;;;;24.20;14.50;;;7.20;99.90;;;;;;5050195;28;20457;-83
2022/03/31 07:35:37;;;;;;;20.40;13.23;;;7.30;99.90;;;;;;5052979;28;21092;-81
2022/03/31 07:38:07;;;;;;;18.03;13.60;;;7.30;99.90;;;;;;5058129;28;20470;-82
2022/03/31 07:40:37;;;;;;;19.50;14.70;;;7.50;99.90;;;;;;5061054;28;20483;-82
2022/03/31 07:43:05;;;;;;;21.40;14.13;;;7.50;99.90;;;;;;5064108;28;20464;-81
2022/03/31 07:45:34;;;;;;;20.37;14.20;;;7.50;99.90;;;;;;5060533;28;21488;-83
2022/03/31 07:48:01;;;;;;;19.40;13.37;;;7.70;99.90;;;;;;5052726;28;20455;-82
2022/03/31 07:50:28;;;;;;;16.87;13.30;;;7.80;99.90;;;;;;5063542;28;20480;-83
2022/03/31 07:52:56;;;;;;;17.87;13.60;;;7.80;99.90;;;;;;5063900;28;20458;-83
2022/03/31 07:55:23;;;;;;;19.17;13.57;;;7.80;99.90;;;;;;5060316;28;20802;-83
2022/03/31 07:57:53;;;;;;;20.97;13.13;;;8.20;99.90;;;;;;5044123;28;20484;-83
2022/03/31 08:00:22;;;;;;;15.83;11.27;;;8.20;99.90;;;;;;5055152;28;20951;-82
2022/03/31 08:02:50;;;;;;;14.03;11.10;;;8.30;99.90;;;;;;5054015;28;20881;-83
2022/03/31 08:05:19;;;;;;;17.17;12.87;;;8.30;99.90;;;;;;5057485;28;20516;-81
2022/03/31 08:07:46;;;;;;;16.63;10.93;;;8.30;99.90;;;;;;5054460;28;20535;-82
2022/03/31 08:10:16;;;;;;;19.00;13.43;;;8.40;99.90;;;;;;5059345;28;20543;-83
2022/03/31 08:12:45;;;;;;;18.10;13.07;;;8.60;99.90;;;;;;5050339;28;20444;-82
2022/03/31 08:15:15;;;;;;;16.50;12.27;;;8.70;99.90;;;;;;5060774;28;21306;-82
2022/03/31 08:17:42;;;;;;;18.63;11.50;;;8.90;99.90;;;;;;5060526;28;20859;-80
2022/03/31 08:20:10;;;;;;;15.03;11.60;;;8.80;99.90;;;;;;5058665;28;20468;-81
2022/03/31 08:22:38;;;;;;;17.20;12.23;;;9.00;99.90;;;;;;5059759;28;20538;-80
2022/03/31 08:25:07;;;;;;;21.10;11.13;;;8.90;99.90;;;;;;5062417;28;20460;-82
2022/03/31 08:27:36;;;;;;;16.60;11.17;;;9.00;99.90;;;;;;5055996;28;20457;-82
2022/03/31 08:30:05;;;;;;;14.43;10.70;;;8.90;99.90;;;;;;5058133;28;20482;-81
2022/03/31 08:32:35;;;;;;;17.90;10.80;;;9.00;99.90;;;;;;5062026;28;20486;-81
2022/03/31 08:35:02;;;;;;;14.90;11.53;;;9.20;99.90;;;;;;5065340;28;20487;-82
2022/03/31 08:37:29;;;;;;;17.10;11.40;;;9.10;99.90;;;;;;5059142;28;20480;-81
2022/03/31 08:39:56;;;;;;;14.70;10.63;;;9.10;99.90;;;;;;5066386;28;20476;-81
2022/03/31 08:42:23;;;;;;;15.27;10.80;;;8.90;99.90;;;;;;5080931;28;20441;-82
2022/03/31 08:44:52;;;;;;;16.87;12.20;;;8.90;99.90;;;;;;5069155;28;20551;-82
2022/03/31 08:47:19;;;;;;;17.07;10.47;;;8.80;99.90;;;;;;5065882;28;20550;-82
2022/03/31 08:49:48;;;;;;;13.10;9.53;;;9.00;99.90;;;;;;5065480;28;20481;-82
2022/03/31 08:52:15;;;;;;;20.60;12.23;;;8.60;99.90;;;;;;5066132;28;20562;-81
2022/03/31 08:54:42;;;;;;;18.53;11.63;;;8.60;99.90;;;;;;5064896;28;20849;-81
2022/03/31 08:57:09;;;;;;;16.57;10.70;;;8.60;99.90;;;;;;5065848;28;20564;-82
2022/03/31 08:59:36;;;;;;;15.40;11.60;;;8.50;99.90;;;;;;5063606;28;20575;-82
2022/03/31 09:02:03;;;;;;;14.47;10.67;;;8.50;99.90;;;;;;5064376;28;20521;-82
2022/03/31 09:04:30;;;;;;;16.83;11.57;;;8.50;99.90;;;;;;5063505;28;20456;-81
2022/03/31 09:07:07;;;;;;;15.90;11.10;;;8.50;99.90;;;;;;5065049;28;20477;-82
2022/03/31 09:09:45;;;;;;;14.23;9.73;;;8.70;99.90;;;;;;5064561;28;20485;-83
2022/03/31 09:12:12;;;;;;;17.67;10.90;;;8.70;99.90;;;;;;5072668;28;20461;-80
2022/03/31 09:14:39;;;;;;;17.73;12.37;;;9.10;99.90;;;;;;5068784;28;20458;-82
2022/03/31 09:17:12;;;;;;;16.90;11.13;;;9.00;99.90;;;;;;5065241;28;20544;-82
2022/03/31 09:19:40;;;;;;;16.00;10.97;;;9.00;99.90;;;;;;5064253;28;20508;-82
2022/03/31 09:22:09;;;;;;;15.50;11.67;;;9.20;99.90;;;;;;5064653;28;20569;-82
2022/03/31 09:24:37;;;;;;;14.93;11.30;;;9.40;99.90;;;;;;5064801;28;20466;-82
2022/03/31 09:27:05;;;;;;;14.53;9.57;;;9.50;99.90;;;;;;5065722;28;20513;-82
2022/03/31 09:29:34;;;;;;;13.43;10.30;;;9.60;99.90;;;;;;5058519;28;20933;-82
2022/03/31 09:32:08;;;;;;;14.60;9.80;;;9.70;99.90;;;;;;5063767;28;20838;-82
2022/03/31 09:34:42;;;;;;;13.60;9.50;;;9.80;99.90;;;;;;5064198;28;20492;-82
2022/03/31 09:37:11;;;;;;;17.60;9.20;;;9.90;99.90;;;;;;5062676;28;20518;-83
2022/03/31 09:39:39;;;;;;;15.70;11.00;;;10.00;99.90;;;;;;5065581;28;20489;-82
2022/03/31 09:42:11;;;;;;;18.07;11.97;;;9.90;99.90;;;;;;5069397;28;21034;-82
2022/03/31 09:44:39;;;;;;;17.07;12.10;;;9.90;99.90;;;;;;5070050;28;20469;-82
2022/03/31 09:47:06;;;;;;;14.70;11.17;;;9.80;99.90;;;;;;5066753;28;20461;-81
2022/03/31 09:49:33;;;;;;;15.13;11.43;;;9.90;99.90;;;;;;5066938;28;20480;-81
2022/03/31 09:52:01;;;;;;;21.90;11.37;;;9.90;99.90;;;;;;5054469;28;20476;-82
2022/03/31 09:54:31;;;;;;;19.00;10.70;;;10.00;99.90;;;;;;5046638;28;20451;-80
2022/03/31 09:57:01;;;;;;;20.60;11.63;;;10.00;99.90;;;;;;5046683;28;20500;-81
2022/03/31 09:59:32;;;;;;;16.60;11.23;;;10.00;99.90;;;;;;5053461;28;20495;-81
2022/03/31 10:01:59;;;;;;;18.47;11.93;;;9.90;99.90;;;;;;5050070;28;20539;-81
2022/03/31 10:04:57;;;;;;;14.43;10.80;;;9.70;99.90;;;;;;5061335;28;20971;-81
2022/03/31 10:07:25;;;;;;;17.90;12.07;;;10.00;99.90;;;;;;5044013;28;20496;-82
2022/03/31 10:09:53;;;;;;;18.90;11.60;;;10.50;99.90;;;;;;5062934;28;20469;-82
2022/03/31 10:12:27;;;;;;;18.10;12.20;;;9.80;99.90;;;;;;5064938;28;20455;-82
2022/03/31 10:14:59;;;;;;;19.77;11.83;;;10.10;99.90;;;;;;5058280;28;20874;-82
2022/03/31 10:17:28;;;;;;;20.50;13.57;;;9.90;99.90;;;;;;5052695;28;20494;-82
2022/03/31 10:20:07;;;;;;;20.13;14.97;;;9.50;99.90;;;;;;5056203;28;20479;-82
2022/03/31 10:25:19;;;;;;;21.60;13.40;;;9.70;99.90;;;;;;5047477;28;20425;-82
2022/03/31 10:27:46;;;;;;;21.80;13.70;;;10.70;99.90;;;;;;5058115;28;20450;-82
2022/03/31 10:30:16;;;;;;;16.83;12.30;;;9.90;99.90;;;;;;5044991;28;20467;-82
2022/03/31 10:32:56;;;;;;;19.37;12.20;;;10.70;99.90;;;;;;5055318;28;20453;-82
2022/03/31 10:35:28;;;;;;;19.60;12.13;;;9.70;99.90;;;;;;5065429;28;20459;-82
2022/03/31 10:37:56;;;;;;;19.67;12.37;;;9.30;99.90;;;;;;5063855;28;20550;-83
2022/03/31 10:40:33;;;;;;;21.00;14.40;;;9.50;99.90;;;;;;5048454;28;20574;-83
2022/03/31 10:43:00;;;;;;;18.90;13.57;;;9.20;99.90;;;;;;5059247;28;20454;-82
2022/03/31 10:45:36;;;;;;;18.60;13.37;;;9.50;99.90;;;;;;5064692;28;20451;-82
2022/03/31 10:48:15;;;;;;;20.70;15.07;;;9.30;99.90;;;;;;5062363;28;20463;-84
2022/03/31 10:50:42;;;;;;;20.57;14.40;;;9.60;99.90;;;;;;5057777;28;20474;-84
2022/03/31 10:53:09;;;;;;;23.50;14.10;;;9.60;99.90;;;;;;5057546;28;20526;-82
2022/03/31 10:55:41;;;;;;;22.90;15.37;;;9.60;99.90;;;;;;5064855;28;20455;-82
2022/03/31 10:58:20;;;;;;;26.13;16.00;;;9.20;99.90;;;;;;5066289;28;20500;-82
2022/03/31 11:00:49;;;;;;;24.50;15.23;;;9.60;99.90;;;;;;5051999;28;20528;-83
2022/03/31 11:03:19;;;;;;;21.97;14.20;;;9.60;99.90;;;;;;5046440;28;20526;-82
2022/03/31 11:05:46;;;;;;;22.87;14.00;;;9.40;99.90;;;;;;5053316;28;20533;-82
2022/03/31 11:08:17;;;;;;;25.07;15.47;;;;;;;;;;5047389;28;20455;-81
2022/03/31 11:10:47;;;;;;;26.63;16.93;;;9.80;99.90;;;;;;5057354;28;20462;-83
2022/03/31 11:13:17;;;;;;;25.03;15.80;;;9.60;99.90;;;;;;5044573;28;20451;-82
2022/03/31 11:15:47;;;;;;;28.90;17.80;;;10.00;99.90;;;;;;5044894;28;20477;-81
2022/03/31 11:18:21;;;;;;;29.97;18.47;;;9.90;99.90;;;;;;5045042;28;20500;-84
2022/03/31 11:20:49;;;;;;;32.10;22.67;;;9.70;99.90;;;;;;5063131;28;20478;-83
2022/03/31 11:23:17;;;;;;;27.30;23.20;;;9.60;99.90;;;;;;5061538;28;20465;-84
2022/03/31 11:25:45;;;;;;;22.87;15.37;;;9.90;99.90;;;;;;5071141;28;20436;-80
2022/03/31 11:28:14;;;;;;;26.50;17.27;;;9.90;99.90;;;;;;5063033;28;20461;-83
2022/03/31 11:30:41;;;;;;;23.53;17.63;;;9.10;99.90;;;;;;5056260;28;20475;-82
2022/03/31 11:33:10;;;;;;;25.53;16.37;;;8.60;99.90;;;;;;5054295;28;20541;-80
2022/03/31 11:35:38;;;;;;;26.70;16.43;;;9.90;99.90;;;;;;5043201;28;20463;-82
2022/03/31 11:38:07;;;;;;;24.37;17.70;;;9.90;99.90;;;;;;5047124;28;20488;-81
2022/03/31 11:40:38;;;;;;;28.90;20.10;;;9.70;99.90;;;;;;5055229;28;20472;-81
2022/03/31 11:43:09;;;;;;;25.40;16.87;;;9.20;99.90;;;;;;5055864;28;20431;-81
2022/03/31 11:45:37;;;;;;;21.10;15.07;;;10.00;99.90;;;;;;5057023;28;20915;-81
2022/03/31 11:48:06;;;;;;;23.57;17.13;;;9.40;99.90;;;;;;5058978;28;20836;-80
2022/03/31 11:50:35;;;;;;;25.07;19.87;;;9.90;99.90;;;;;;5058920;28;20478;-81
2022/03/31 11:53:03;;;;;;;22.00;15.50;;;9.60;99.90;;;;;;5059484;28;20446;-81
2022/03/31 11:55:30;;;;;;;27.10;16.77;;;9.80;99.90;;;;;;5058590;28;20469;-81
2022/03/31 11:57:59;;;;;;;23.70;16.13;;;10.00;99.90;;;;;;5059183;28;20862;-81
2022/03/31 12:00:30;;;;;;;21.90;15.70;;;9.70;99.90;;;;;;5046898;28;20507;-81
2022/03/31 12:02:59;;;;;;;23.57;16.67;;;9.80;99.90;;;;;;5039259;28;20956;-79
2022/03/31 12:05:26;;;;;;;26.10;17.90;;;;;;;;;;5058851;28;20462;-81
2022/03/31 12:07:54;;;;;;;24.17;16.53;;;9.60;99.90;;;;;;5056184;28;20457;-81
2022/03/31 12:10:22;;;;;;;23.30;16.53;;;9.70;99.90;;;;;;5048953;28;20477;-82
2022/03/31 12:12:50;;;;;;;36.53;31.43;;;9.90;99.90;;;;;;5053192;28;21018;-82
2022/03/31 12:15:22;;;;;;;26.47;15.63;;;9.60;99.90;;;;;;5047430;28;20460;-81
2022/03/31 12:18:03;;;;;;;22.43;15.40;;;9.50;99.90;;;;;;5039348;28;20491;-80
2022/03/31 12:20:31;;;;;;;20.17;13.70;;;10.10;99.90;;;;;;5057463;28;20555;-81
2022/03/31 12:22:59;;;;;;;23.43;15.70;;;;;;;;;;5058796;28;20459;-79
2022/03/31 12:25:31;;;;;;;30.07;18.00;;;9.50;99.90;;;;;;5063096;28;20466;-80
2022/03/31 12:28:00;;;;;;;23.07;14.53;;;9.30;99.90;;;;;;5061277;28;20622;-81
2022/03/31 12:30:38;;;;;;;22.30;14.97;;;9.20;99.90;;;;;;5058912;28;20474;-82
2022/03/31 12:33:17;;;;;;;24.13;14.83;;;9.40;99.90;;;;;;5058412;28;20454;-82
2022/03/31 12:35:43;;;;;;;21.40;15.80;;;9.90;99.90;;;;;;5058302;28;20457;-81
2022/03/31 12:38:10;;;;;;;29.67;20.67;;;;;;;;;;5055775;28;20486;-80
2022/03/31 12:40:43;;;;;;;24.10;15.20;;;9.80;99.90;;;;;;5055293;28;20989;-80
2022/03/31 12:43:10;;;;;;;24.17;16.10;;;;;;;;;;5054474;28;20982;-81
2022/03/31 12:45:38;;;;;;;25.70;19.67;;;;;;;;;;5040888;28;20455;-81
2022/03/31 12:48:11;;;;;;;41.47;35.23;;;9.30;99.90;;;;;;5037771;28;20460;-79
2022/03/31 12:50:40;;;;;;;22.40;15.33;;;9.00;99.90;;;;;;5055818;28;20482;-80
2022/03/31 12:53:07;;;;;;;24.03;14.83;;;9.10;99.90;;;;;;5059142;28;20512;-84
2022/03/31 12:55:36;;;;;;;66.40;46.93;;;8.60;99.90;;;;;;5057646;28;20488;-81
2022/03/31 12:58:05;;;;;;;21.03;14.00;;;8.60;99.90;;;;;;5052735;28;21046;-81
2022/03/31 13:00:33;;;;;;;21.10;15.80;;;8.40;99.90;;;;;;5056329;28;20502;-82